F/V Endeavour — WDG2339 — position and weather

sailwx.info

Track history (hours):
 
Tides and Currents Weather Stations Pressure Air Temp Water Temp Dewpoint Dewpoint Depression Visibility Wind Speed Wind Dir Waves Ship Positions

F/V Endeavour

Owner: F/V Endeavour Inc., Gloucester, MA. More information available from US FCC via Universal Licensing System and Coast Guard Vessel Documentation Center.

Last reported at 2017-Oct-22 22:28 UTC. Time now 2017-Oct-22 22:59 UTC.
Position N 42°37' W 070°39'.

Length 42 m.

Type: Fishing. MMSI: 367514630.

Date/timePositionNaut miles runAvg speedWind from/ knotsBaromVisibWave heightAir tempDewpointWater temp
2017-Oct-22 22:28N 42°37' W 070°39'0 0.0
2017-Oct-22 21:55N 42°37' W 070°39'0 0.0
2017-Oct-22 21:28N 42°37' W 070°39'0 0.0
2017-Oct-22 20:58N 42°37' W 070°39'0 0.0
2017-Oct-22 20:22N 42°37' W 070°39'0 0.0
2017-Oct-22 19:58N 42°37' W 070°39'0 0.0
2017-Oct-22 19:28N 42°37' W 070°39'0 0.0
2017-Oct-22 18:58N 42°37' W 070°39'0 0.0
2017-Oct-22 18:28N 42°37' W 070°39'0 0.0
2017-Oct-22 17:58N 42°37' W 070°39'0 0.0
2017-Oct-22 17:28N 42°37' W 070°39'0 0.0
2017-Oct-22 16:58N 42°37' W 070°39'0 0.0
2017-Oct-22 16:28N 42°37' W 070°39'0 0.0
2017-Oct-22 15:58N 42°37' W 070°39'0 0.0
2017-Oct-22 15:25N 42°37' W 070°39'0 0.0
2017-Oct-22 14:55N 42°37' W 070°39'0 0.0
2017-Oct-22 14:28N 42°37' W 070°39'0 0.0
2017-Oct-22 13:58N 42°37' W 070°39'0 0.0
2017-Oct-22 13:28N 42°37' W 070°39'0 0.0
2017-Oct-22 12:58N 42°37' W 070°39'0 0.0
2017-Oct-22 12:25N 42°37' W 070°39'0 0.0
2017-Oct-22 11:58N 42°37' W 070°39'0 0.0
2017-Oct-22 11:28N 42°37' W 070°39'0 0.0
2017-Oct-22 10:55N 42°37' W 070°39'0 0.0
2017-Oct-22 10:28N 42°37' W 070°39'0 0.0
2017-Oct-22 09:58N 42°37' W 070°39'0 0.0
2017-Oct-22 09:25N 42°37' W 070°39'0 0.0
2017-Oct-22 08:58N 42°37' W 070°39'0 0.0
2017-Oct-22 08:28N 42°37' W 070°39'0 0.0
2017-Oct-22 07:55N 42°37' W 070°39'0 0.0
2017-Oct-22 07:28N 42°37' W 070°39'0 0.0
2017-Oct-22 06:58N 42°37' W 070°39'0 0.0
2017-Oct-22 06:28N 42°37' W 070°39'0 0.0
2017-Oct-22 05:52N 42°37' W 070°39'0 0.0
2017-Oct-22 05:28N 42°37' W 070°39'0 0.0
2017-Oct-22 04:58N 42°37' W 070°39'0 0.0
2017-Oct-22 04:28N 42°37' W 070°39'0 0.0
2017-Oct-22 03:58N 42°37' W 070°39'0 0.0
2017-Oct-22 03:28N 42°37' W 070°39'0 0.0
2017-Oct-22 02:58N 42°37' W 070°39'0 0.0
2017-Oct-22 02:28N 42°37' W 070°39'0 0.1
2017-Oct-22 01:58N 42°37' W 070°39'3 5.7
2017-Oct-22 01:29N 42°34' W 070°40'4 7.7
2017-Oct-22 00:59N 42°32' W 070°36'4 8.9
2017-Oct-22 00:30N 42°28' W 070°32'5 9.5
2017-Oct-22 00:00N 42°25' W 070°28'  
2017-Oct-18 05:05N 42°22' W 070°23'1 7.8
2017-Oct-18 04:55N 42°23' W 070°24'3 7.6
2017-Oct-18 04:30N 42°25' W 070°27'4 7.6
2017-Oct-18 04:00N 42°28' W 070°31'4 7.1
2017-Oct-18 03:30N 42°30' W 070°34'3 6.5
2017-Oct-18 03:00N 42°33' W 070°37'3 6.5
2017-Oct-18 02:30N 42°35' W 070°41'3 5.1
2017-Oct-18 02:01N 42°37' W 070°39'0 0.0
2017-Oct-18 01:30N 42°37' W 070°39'0 0.0
2017-Oct-18 00:54N 42°37' W 070°39'0 0.0
2017-Oct-18 00:24N 42°37' W 070°39'0 0.0
2017-Oct-18 00:01N 42°37' W 070°39'0 0.0
2017-Oct-17 23:27N 42°37' W 070°39'0 0.0
2017-Oct-17 23:00N 42°37' W 070°39'0 0.0
2017-Oct-17 22:30N 42°37' W 070°39'0 0.0
2017-Oct-17 21:54N 42°37' W 070°39'0 0.0
2017-Oct-17 21:30N 42°37' W 070°39'0 0.0
2017-Oct-17 21:01N 42°37' W 070°39'0 0.0
2017-Oct-17 20:30N 42°37' W 070°39'0 0.0
2017-Oct-17 20:01N 42°37' W 070°39'0 0.0
2017-Oct-17 19:25N 42°37' W 070°39'0 0.0
2017-Oct-17 19:00N 42°37' W 070°39'0 0.0
2017-Oct-17 18:30N 42°37' W 070°39'0 0.0
2017-Oct-17 18:01N 42°37' W 070°39'0 0.0
2017-Oct-17 17:31N 42°37' W 070°39'0 0.0
2017-Oct-17 17:01N 42°37' W 070°39'0 0.0
2017-Oct-17 16:31N 42°37' W 070°39'0 0.0
2017-Oct-17 16:00N 42°37' W 070°39'0 0.0
2017-Oct-17 15:31N 42°37' W 070°39'0 0.0
2017-Oct-17 15:01N 42°37' W 070°39'0 0.0
2017-Oct-17 14:27N 42°37' W 070°39'0 0.0
2017-Oct-17 13:57N 42°37' W 070°39'0 0.0
2017-Oct-17 13:30N 42°37' W 070°39'0 0.0
2017-Oct-17 13:00N 42°37' W 070°39'0 0.0
2017-Oct-17 12:30N 42°37' W 070°39'0 0.0
2017-Oct-17 12:00N 42°37' W 070°39'0 0.0
2017-Oct-17 11:24N 42°37' W 070°39'0 0.0
2017-Oct-17 11:00N 42°37' W 070°39'0 0.0
2017-Oct-17 10:31N 42°37' W 070°39'0 0.0
2017-Oct-17 10:00N 42°37' W 070°39'0 0.0
2017-Oct-17 09:31N 42°37' W 070°39'0 0.0
2017-Oct-17 09:00N 42°37' W 070°39'0 0.0
2017-Oct-17 08:27N 42°37' W 070°39'0 0.0
2017-Oct-17 08:00N 42°37' W 070°39'0 0.0
2017-Oct-17 07:31N 42°37' W 070°39'0 0.0
2017-Oct-17 07:01N 42°37' W 070°39'0 0.0
2017-Oct-17 06:30N 42°37' W 070°39'0 0.0
2017-Oct-17 06:01N 42°37' W 070°39'0 0.0
2017-Oct-17 05:30N 42°37' W 070°39'0 0.0
2017-Oct-17 05:00N 42°37' W 070°39'0 0.0
2017-Oct-17 04:30N 42°37' W 070°39'0 0.0
2017-Oct-17 04:00N 42°37' W 070°39'0 0.0
2017-Oct-17 03:16N 42°37' W 070°39'0 0.0
2017-Oct-17 02:58N 42°37' W 070°39'0 0.0
2017-Oct-17 02:24N 42°37' W 070°39'0 0.0
2017-Oct-17 02:01N 42°37' W 070°39'0 0.0
2017-Oct-17 01:30N 42°37' W 070°39'0 0.0
2017-Oct-17 01:00N 42°37' W 070°39'0 0.0
2017-Oct-17 00:30N 42°37' W 070°39'0 0.0
2017-Oct-16 23:57N 42°37' W 070°39'0 0.0
2017-Oct-16 23:24N 42°37' W 070°39'0 0.0
2017-Oct-16 23:00N 42°37' W 070°39'0 0.0
2017-Oct-16 22:30N 42°37' W 070°39'0 0.0
2017-Oct-16 22:00N 42°37' W 070°39'0 0.0
2017-Oct-16 21:30N 42°37' W 070°39'0 0.0
2017-Oct-16 21:00N 42°37' W 070°39'0 0.0
2017-Oct-16 20:24N 42°37' W 070°39'0 0.0
2017-Oct-16 20:00N 42°37' W 070°39'0 0.0
2017-Oct-16 19:31N 42°37' W 070°39'0 0.0
2017-Oct-16 19:00N 42°37' W 070°39'0 0.0
2017-Oct-16 18:30N 42°37' W 070°39'0 0.0
2017-Oct-16 18:00N 42°37' W 070°39'0 0.0
2017-Oct-16 17:16N 42°37' W 070°39'0 0.0
2017-Oct-16 16:51N 42°37' W 070°39'0 0.0
2017-Oct-16 16:28N 42°37' W 070°39'0 0.0
2017-Oct-16 15:48N 42°37' W 070°39'0 0.0
2017-Oct-16 15:30N 42°37' W 070°39'0 0.0
2017-Oct-16 14:58N 42°37' W 070°39'0 0.0
2017-Oct-16 14:30N 42°37' W 070°39'0 0.0
2017-Oct-16 13:18N 42°37' W 070°39'0 0.0
2017-Oct-16 12:55N 42°37' W 070°39'0 0.0
2017-Oct-16 12:27N 42°37' W 070°39'0 0.0
2017-Oct-16 12:00N 42°37' W 070°39'0 0.0
2017-Oct-16 11:30N 42°37' W 070°39'0 0.0
2017-Oct-16 10:58N 42°37' W 070°39'0 0.0
2017-Oct-16 10:30N 42°37' W 070°39'0 0.0
2017-Oct-16 09:57N 42°37' W 070°39'0 0.0
2017-Oct-16 09:30N 42°37' W 070°39'0 0.0
2017-Oct-16 08:57N 42°37' W 070°39'0 0.0
2017-Oct-16 08:31N 42°37' W 070°39'0 0.0
2017-Oct-16 08:01N 42°37' W 070°39'0 0.0
2017-Oct-16 07:28N 42°37' W 070°39'0 0.0
2017-Oct-16 07:00N 42°37' W 070°39'0 0.0
2017-Oct-16 06:28N 42°37' W 070°39'0 0.0
2017-Oct-16 05:58N 42°37' W 070°39'0 0.0
2017-Oct-16 05:24N 42°37' W 070°39'0 0.0
2017-Oct-16 05:00N 42°37' W 070°39'0 0.0
2017-Oct-16 04:31N 42°37' W 070°39'0 0.0
2017-Oct-16 03:57N 42°37' W 070°39'0 0.0
2017-Oct-16 03:15N 42°37' W 070°39'0 0.0
2017-Oct-16 03:01N 42°37' W 070°39'0 0.0
2017-Oct-16 02:21N 42°37' W 070°39'0 0.0
2017-Oct-16 02:01N 42°37' W 070°39'0 0.0
2017-Oct-16 01:24N 42°37' W 070°39'0 0.0
2017-Oct-16 01:01N 42°37' W 070°39'0 0.0
2017-Oct-16 00:30N 42°37' W 070°39'0 0.0
2017-Oct-15 23:57N 42°37' W 070°39'0 0.0
2017-Oct-15 23:30N 42°37' W 070°39'0 0.0
2017-Oct-15 23:01N 42°37' W 070°39'0 0.0
2017-Oct-15 22:31N 42°37' W 070°39'0 0.0
2017-Oct-15 22:00N 42°37' W 070°39'0 0.0
2017-Oct-15 21:30N 42°37' W 070°39'0 0.0
2017-Oct-15 20:57N 42°37' W 070°39'0 0.0
2017-Oct-15 20:30N 42°37' W 070°39'0 0.0
2017-Oct-15 20:00N 42°37' W 070°39'1 1.1
2017-Oct-15 19:30N 42°36' W 070°40'4 8.4
2017-Oct-15 19:00N 42°32' W 070°39'5 9.8
2017-Oct-15 18:29N 42°28' W 070°35'10 0.3
2017-Oct-14 04:34N 42°23' W 070°23'1 7.5
2017-Oct-14 04:29N 42°23' W 070°24'4 7.5
2017-Oct-14 03:59N 42°26' W 070°28'3 7.3
2017-Oct-14 03:30N 42°28' W 070°31'4 7.5
2017-Oct-14 03:00N 42°31' W 070°35'4 7.9
2017-Oct-14 02:30N 42°33' W 070°39'  
Track history (hours):
 
Tides and Currents Weather Stations Pressure Air Temp Water Temp Dewpoint Dewpoint Depression Visibility Wind Speed Wind Dir Waves Ship Positions

F/V Endeavour

Owner: F/V Endeavour Inc., Gloucester, MA. More information available from US FCC via Universal Licensing System and Coast Guard Vessel Documentation Center.

Last reported at 2017-Oct-22 22:28 UTC. Time now 2017-Oct-22 22:59 UTC.
Position N 42°37' W 070°39'.

Length 42 m.

Type: Fishing. MMSI: 367514630.

Date/timePositionNaut miles runAvg speedWind from/ knotsBaromVisibWave heightAir tempDewpointWater temp
2017-Oct-22 22:28N 42°37' W 070°39'0 0.0
2017-Oct-22 21:55N 42°37' W 070°39'0 0.0
2017-Oct-22 21:28N 42°37' W 070°39'0 0.0
2017-Oct-22 20:58N 42°37' W 070°39'0 0.0
2017-Oct-22 20:22N 42°37' W 070°39'0 0.0
2017-Oct-22 19:58N 42°37' W 070°39'0 0.0
2017-Oct-22 19:28N 42°37' W 070°39'0 0.0
2017-Oct-22 18:58N 42°37' W 070°39'0 0.0
2017-Oct-22 18:28N 42°37' W 070°39'0 0.0
2017-Oct-22 17:58N 42°37' W 070°39'0 0.0
2017-Oct-22 17:28N 42°37' W 070°39'0 0.0
2017-Oct-22 16:58N 42°37' W 070°39'0 0.0
2017-Oct-22 16:28N 42°37' W 070°39'0 0.0
2017-Oct-22 15:58N 42°37' W 070°39'0 0.0
2017-Oct-22 15:25N 42°37' W 070°39'0 0.0
2017-Oct-22 14:55N 42°37' W 070°39'0 0.0
2017-Oct-22 14:28N 42°37' W 070°39'0 0.0
2017-Oct-22 13:58N 42°37' W 070°39'0 0.0
2017-Oct-22 13:28N 42°37' W 070°39'0 0.0
2017-Oct-22 12:58N 42°37' W 070°39'0 0.0
2017-Oct-22 12:25N 42°37' W 070°39'0 0.0
2017-Oct-22 11:58N 42°37' W 070°39'0 0.0
2017-Oct-22 11:28N 42°37' W 070°39'0 0.0
2017-Oct-22 10:55N 42°37' W 070°39'0 0.0
2017-Oct-22 10:28N 42°37' W 070°39'0 0.0
2017-Oct-22 09:58N 42°37' W 070°39'0 0.0
2017-Oct-22 09:25N 42°37' W 070°39'0 0.0
2017-Oct-22 08:58N 42°37' W 070°39'0 0.0
2017-Oct-22 08:28N 42°37' W 070°39'0 0.0
2017-Oct-22 07:55N 42°37' W 070°39'0 0.0
2017-Oct-22 07:28N 42°37' W 070°39'0 0.0
2017-Oct-22 06:58N 42°37' W 070°39'0 0.0
2017-Oct-22 06:28N 42°37' W 070°39'0 0.0
2017-Oct-22 05:52N 42°37' W 070°39'0 0.0
2017-Oct-22 05:28N 42°37' W 070°39'0 0.0
2017-Oct-22 04:58N 42°37' W 070°39'0 0.0
2017-Oct-22 04:28N 42°37' W 070°39'0 0.0
2017-Oct-22 03:58N 42°37' W 070°39'0 0.0
2017-Oct-22 03:28N 42°37' W 070°39'0 0.0
2017-Oct-22 02:58N 42°37' W 070°39'0 0.0
2017-Oct-22 02:28N 42°37' W 070°39'0 0.1
2017-Oct-22 01:58N 42°37' W 070°39'3 5.7
2017-Oct-22 01:29N 42°34' W 070°40'4 7.7
2017-Oct-22 00:59N 42°32' W 070°36'4 8.9
2017-Oct-22 00:30N 42°28' W 070°32'5 9.5
2017-Oct-22 00:00N 42°25' W 070°28'  
2017-Oct-18 05:05N 42°22' W 070°23'1 7.8
2017-Oct-18 04:55N 42°23' W 070°24'3 7.6
2017-Oct-18 04:30N 42°25' W 070°27'4 7.6
2017-Oct-18 04:00N 42°28' W 070°31'4 7.1
2017-Oct-18 03:30N 42°30' W 070°34'3 6.5
2017-Oct-18 03:00N 42°33' W 070°37'3 6.5
2017-Oct-18 02:30N 42°35' W 070°41'3 5.1
2017-Oct-18 02:01N 42°37' W 070°39'0 0.0
2017-Oct-18 01:30N 42°37' W 070°39'0 0.0
2017-Oct-18 00:54N 42°37' W 070°39'0 0.0
2017-Oct-18 00:24N 42°37' W 070°39'0 0.0
2017-Oct-18 00:01N 42°37' W 070°39'0 0.0
2017-Oct-17 23:27N 42°37' W 070°39'0 0.0
2017-Oct-17 23:00N 42°37' W 070°39'0 0.0
2017-Oct-17 22:30N 42°37' W 070°39'0 0.0
2017-Oct-17 21:54N 42°37' W 070°39'0 0.0
2017-Oct-17 21:30N 42°37' W 070°39'0 0.0
2017-Oct-17 21:01N 42°37' W 070°39'0 0.0
2017-Oct-17 20:30N 42°37' W 070°39'0 0.0
2017-Oct-17 20:01N 42°37' W 070°39'0 0.0
2017-Oct-17 19:25N 42°37' W 070°39'0 0.0
2017-Oct-17 19:00N 42°37' W 070°39'0 0.0
2017-Oct-17 18:30N 42°37' W 070°39'0 0.0
2017-Oct-17 18:01N 42°37' W 070°39'0 0.0
2017-Oct-17 17:31N 42°37' W 070°39'0 0.0
2017-Oct-17 17:01N 42°37' W 070°39'0 0.0
2017-Oct-17 16:31N 42°37' W 070°39'0 0.0
2017-Oct-17 16:00N 42°37' W 070°39'0 0.0
2017-Oct-17 15:31N 42°37' W 070°39'0 0.0
2017-Oct-17 15:01N 42°37' W 070°39'0 0.0
2017-Oct-17 14:27N 42°37' W 070°39'0 0.0
2017-Oct-17 13:57N 42°37' W 070°39'0 0.0
2017-Oct-17 13:30N 42°37' W 070°39'0 0.0
2017-Oct-17 13:00N 42°37' W 070°39'0 0.0
2017-Oct-17 12:30N 42°37' W 070°39'0 0.0
2017-Oct-17 12:00N 42°37' W 070°39'0 0.0
2017-Oct-17 11:24N 42°37' W 070°39'0 0.0
2017-Oct-17 11:00N 42°37' W 070°39'0 0.0
2017-Oct-17 10:31N 42°37' W 070°39'0 0.0
2017-Oct-17 10:00N 42°37' W 070°39'0 0.0
2017-Oct-17 09:31N 42°37' W 070°39'0 0.0
2017-Oct-17 09:00N 42°37' W 070°39'0 0.0
2017-Oct-17 08:27N 42°37' W 070°39'0 0.0
2017-Oct-17 08:00N 42°37' W 070°39'0 0.0
2017-Oct-17 07:31N 42°37' W 070°39'0 0.0
2017-Oct-17 07:01N 42°37' W 070°39'0 0.0
2017-Oct-17 06:30N 42°37' W 070°39'0 0.0
2017-Oct-17 06:01N 42°37' W 070°39'0 0.0
2017-Oct-17 05:30N 42°37' W 070°39'0 0.0
2017-Oct-17 05:00N 42°37' W 070°39'0 0.0
2017-Oct-17 04:30N 42°37' W 070°39'0 0.0
2017-Oct-17 04:00N 42°37' W 070°39'0 0.0
2017-Oct-17 03:16N 42°37' W 070°39'0 0.0
2017-Oct-17 02:58N 42°37' W 070°39'0 0.0
2017-Oct-17 02:24N 42°37' W 070°39'0 0.0
2017-Oct-17 02:01N 42°37' W 070°39'0 0.0
2017-Oct-17 01:30N 42°37' W 070°39'0 0.0
2017-Oct-17 01:00N 42°37' W 070°39'0 0.0
2017-Oct-17 00:30N 42°37' W 070°39'0 0.0
2017-Oct-16 23:57N 42°37' W 070°39'0 0.0
2017-Oct-16 23:24N 42°37' W 070°39'0 0.0
2017-Oct-16 23:00N 42°37' W 070°39'0 0.0
2017-Oct-16 22:30N 42°37' W 070°39'0 0.0
2017-Oct-16 22:00N 42°37' W 070°39'0 0.0
2017-Oct-16 21:30N 42°37' W 070°39'0 0.0
2017-Oct-16 21:00N 42°37' W 070°39'0 0.0
2017-Oct-16 20:24N 42°37' W 070°39'0 0.0
2017-Oct-16 20:00N 42°37' W 070°39'0 0.0
2017-Oct-16 19:31N 42°37' W 070°39'0 0.0
2017-Oct-16 19:00N 42°37' W 070°39'0 0.0
2017-Oct-16 18:30N 42°37' W 070°39'0 0.0
2017-Oct-16 18:00N 42°37' W 070°39'0 0.0
2017-Oct-16 17:16N 42°37' W 070°39'0 0.0
2017-Oct-16 16:51N 42°37' W 070°39'0 0.0
2017-Oct-16 16:28N 42°37' W 070°39'0 0.0
2017-Oct-16 15:48N 42°37' W 070°39'0 0.0
2017-Oct-16 15:30N 42°37' W 070°39'0 0.0
2017-Oct-16 14:58N 42°37' W 070°39'0 0.0
2017-Oct-16 14:30N 42°37' W 070°39'0 0.0
2017-Oct-16 13:18N 42°37' W 070°39'0 0.0
2017-Oct-16 12:55N 42°37' W 070°39'0 0.0
2017-Oct-16 12:27N 42°37' W 070°39'0 0.0
2017-Oct-16 12:00N 42°37' W 070°39'0 0.0
2017-Oct-16 11:30N 42°37' W 070°39'0 0.0
2017-Oct-16 10:58N 42°37' W 070°39'0 0.0
2017-Oct-16 10:30N 42°37' W 070°39'0 0.0
2017-Oct-16 09:57N 42°37' W 070°39'0 0.0
2017-Oct-16 09:30N 42°37' W 070°39'0 0.0
2017-Oct-16 08:57N 42°37' W 070°39'0 0.0
2017-Oct-16 08:31N 42°37' W 070°39'0 0.0
2017-Oct-16 08:01N 42°37' W 070°39'0 0.0
2017-Oct-16 07:28N 42°37' W 070°39'0 0.0
2017-Oct-16 07:00N 42°37' W 070°39'0 0.0
2017-Oct-16 06:28N 42°37' W 070°39'0 0.0
2017-Oct-16 05:58N 42°37' W 070°39'0 0.0
2017-Oct-16 05:24N 42°37' W 070°39'0 0.0
2017-Oct-16 05:00N 42°37' W 070°39'0 0.0
2017-Oct-16 04:31N 42°37' W 070°39'0 0.0
2017-Oct-16 03:57N 42°37' W 070°39'0 0.0
2017-Oct-16 03:15N 42°37' W 070°39'0 0.0
2017-Oct-16 03:01N 42°37' W 070°39'0 0.0
2017-Oct-16 02:21N 42°37' W 070°39'0 0.0
2017-Oct-16 02:01N 42°37' W 070°39'0 0.0
2017-Oct-16 01:24N 42°37' W 070°39'0 0.0
2017-Oct-16 01:01N 42°37' W 070°39'0 0.0
2017-Oct-16 00:30N 42°37' W 070°39'0 0.0
2017-Oct-15 23:57N 42°37' W 070°39'0 0.0
2017-Oct-15 23:30N 42°37' W 070°39'0 0.0
2017-Oct-15 23:01N 42°37' W 070°39'0 0.0
2017-Oct-15 22:31N 42°37' W 070°39'0 0.0
2017-Oct-15 22:00N 42°37' W 070°39'0 0.0
2017-Oct-15 21:30N 42°37' W 070°39'0 0.0
2017-Oct-15 20:57N 42°37' W 070°39'0 0.0
2017-Oct-15 20:30N 42°37' W 070°39'0 0.0
2017-Oct-15 20:00N 42°37' W 070°39'1 1.1
2017-Oct-15 19:30N 42°36' W 070°40'4 8.4
2017-Oct-15 19:00N 42°32' W 070°39'5 9.8
2017-Oct-15 18:29N 42°28' W 070°35'10 0.3
2017-Oct-14 04:34N 42°23' W 070°23'1 7.5
2017-Oct-14 04:29N 42°23' W 070°24'4 7.5
2017-Oct-14 03:59N 42°26' W 070°28'3 7.3
2017-Oct-14 03:30N 42°28' W 070°31'4 7.5
2017-Oct-14 03:00N 42°31' W 070°35'4 7.9
2017-Oct-14 02:30N 42°33' W 070°39'  

Dump ship's entire track history